Time,TemperatureF,DewpointF,PressureIn,WindDirection,WindDirectionDegrees,WindSpeedMPH,WindSpeedGustMPH,Humidity,HourlyPrecipIn,Conditions,Clouds,dailyrainin,SoftwareType,DateUTC
2013-01-01 08:01:00,30.9,25.5,30.01,WSW,242,0.0,0.0,80,0.00,,,0.00,Wunderground v.1.15,2013-01-01 13:01:00,
2013-01-01 08:02:00,30.9,25.5,30.01,WSW,243,0.0,0.0,80,0.00,,,0.00,Wunderground v.1.15,2013-01-01 13:02:00,
2013-01-01 08:05:00,31.0,25.9,30.02,WSW,242,0.0,0.0,81,0.00,,,0.00,Wunderground v.1.15,2013-01-01 13:05:00,
2013-01-01 08:10:00,31.1,26.0,30.01,WSW,242,0.0,0.0,81,0.00,,,0.00,Wunderground v.1.15,2013-01-01 13:10:00,
2013-01-01 08:16:00,31.3,26.1,30.01,WSW,243,0.0,0.0,81,0.00,,,0.00,Wunderground v.1.15,2013-01-01 13:16:00,
2013-01-01 08:21:00,31.5,26.6,30.01,WSW,243,0.0,0.0,82,0.00,,,0.00,Wunderground v.1.15,2013-01-01 13:21:00,
2013-01-01 08:27:00,31.9,26.7,30.01,WSW,243,0.0,0.0,81,0.00,,,0.00,Wunderground v.1.15,2013-01-01 13:27:00,
2013-01-01 08:32:00,32.2,27.0,30.00,WSW,243,0.0,0.0,81,0.00,,,0.00,Wunderground v.1.15,2013-01-01 13:32:00,
2013-01-01 08:38:00,32.7,27.5,30.00,WSW,242,0.0,0.0,81,0.00,,,0.00,Wunderground v.1.15,2013-01-01 13:38:00,
2013-01-01 08:44:00,33.0,27.5,30.02,WSW,242,0.0,0.0,80,0.00,,,0.00,Wunderground v.1.15,2013-01-01 13:44:00,
2013-01-01 08:49:00,33.3,27.8,30.02,WSW,242,0.0,0.0,80,0.00,,,0.00,Wunderground v.1.15,2013-01-01 13:49:00,
2013-01-01 08:54:00,33.5,28.0,30.02,WSW,242,0.0,0.0,80,0.00,,,0.00,Wunderground v.1.15,2013-01-01 13:54:00,
2013-01-01 09:00:00,34.1,28.3,30.01,WSW,243,0.0,0.0,79,0.00,,,0.00,Wunderground v.1.15,2013-01-01 14:00:00,
2013-01-01 09:05:00,34.4,28.2,30.02,WSW,243,0.0,0.0,78,0.00,,,0.00,Wunderground v.1.15,2013-01-01 14:05:00,
2013-01-01 09:11:00,34.9,28.4,30.02,WSW,243,0.0,0.0,77,0.00,,,0.00,Wunderground v.1.15,2013-01-01 14:11:00,
2013-01-01 09:16:00,35.3,28.8,30.02,WSW,243,0.0,0.0,77,0.00,,,0.00,Wunderground v.1.15,2013-01-01 14:16:00,
2013-01-01 09:22:00,35.9,29.1,30.02,WSW,243,0.0,0.0,76,0.00,,,0.00,Wunderground v.1.15,2013-01-01 14:22:00,
2013-01-01 09:27:00,36.2,29.0,30.02,WSW,243,0.0,0.0,75,0.00,,,0.00,Wunderground v.1.15,2013-01-01 14:27:00,
2013-01-01 09:33:00,36.6,29.4,30.02,WSW,243,0.0,0.0,75,0.00,,,0.00,Wunderground v.1.15,2013-01-01 14:33:00,
2013-01-01 09:39:00,36.9,29.4,30.02,WSW,242,0.0,0.0,74,0.00,,,0.00,Wunderground v.1.15,2013-01-01 14:39:00,
2013-01-01 09:44:00,37.2,29.7,30.02,WSW,242,0.0,0.0,74,0.00,,,0.00,Wunderground v.1.15,2013-01-01 14:44:00,
2013-01-01 09:49:00,37.5,29.6,30.02,WSW,243,0.0,0.0,73,0.00,,,0.00,Wunderground v.1.15,2013-01-01 14:49:00,
2013-01-01 09:55:00,37.7,29.8,30.02,WSW,243,0.0,0.0,73,0.00,,,0.00,Wunderground v.1.15,2013-01-01 14:55:00,
2013-01-01 10:00:00,37.9,30.4,30.02,WSW,243,0.0,0.0,74,0.00,,,0.00,Wunderground v.1.15,2013-01-01 15:00:00,
2013-01-01 10:05:00,38.0,30.4,30.02,WSW,242,0.0,0.0,74,0.00,,,0.00,Wunderground v.1.15,2013-01-01 15:05:00,
2013-01-01 10:10:00,38.2,30.3,30.01,WSW,242,0.0,1.0,73,0.00,,,0.00,Wunderground v.1.15,2013-01-01 15:10:00,
2013-01-01 10:16:00,38.6,30.4,30.02,West,267,1.0,4.0,72,0.00,,,0.00,Wunderground v.1.15,2013-01-01 15:16:00,
2013-01-01 10:21:00,38.7,30.1,30.01,West,268,2.0,2.0,71,0.00,,,0.00,Wunderground v.1.15,2013-01-01 15:21:00,
2013-01-01 10:27:00,38.8,30.5,30.01,West,268,2.0,3.0,72,0.00,,,0.00,Wunderground v.1.15,2013-01-01 15:27:00,
2013-01-01 10:32:00,38.9,30.3,30.02,West,268,1.0,1.0,71,0.00,,,0.00,Wunderground v.1.15,2013-01-01 15:32:00,
2013-01-01 10:38:00,39.0,30.4,30.03,West,268,2.0,3.0,71,0.00,,,0.00,Wunderground v.1.15,2013-01-01 15:38:00,
2013-01-01 10:43:00,39.0,30.7,30.03,West,268,2.0,2.0,72,0.00,,,0.00,Wunderground v.1.15,2013-01-01 15:43:00,
2013-01-01 10:49:00,38.9,30.6,30.02,West,268,0.0,2.0,72,0.00,,,0.00,Wunderground v.1.15,2013-01-01 15:49:00,
2013-01-01 10:54:00,39.0,30.7,30.02,West,268,0.0,1.0,72,0.00,,,0.00,Wunderground v.1.15,2013-01-01 15:54:00,
2013-01-01 10:59:00,39.0,30.7,30.01,West,268,0.0,1.0,72,0.00,,,0.00,Wunderground v.1.15,2013-01-01 15:59:00,
2013-01-01 11:05:00,39.1,30.5,30.01,West,268,0.0,0.0,71,0.00,,,0.00,Wunderground v.1.15,2013-01-01 16:05:00,
2013-01-01 11:11:00,39.3,30.7,30.01,West,268,0.0,0.0,71,0.00,,,0.00,Wunderground v.1.15,2013-01-01 16:11:00,
2013-01-01 11:16:00,39.5,30.9,30.01,West,268,0.0,0.0,71,0.00,,,0.00,Wunderground v.1.15,2013-01-01 16:16:00,
2013-01-01 11:21:00,39.6,30.6,30.01,West,268,0.0,0.0,70,0.00,,,0.00,Wunderground v.1.15,2013-01-01 16:21:00,
2013-01-01 11:27:00,39.8,30.8,30.01,West,268,0.0,0.0,70,0.00,,,0.00,Wunderground v.1.15,2013-01-01 16:27:00,
2013-01-01 11:32:00,40.0,31.0,30.00,West,268,1.0,2.0,70,0.00,,,0.00,Wunderground v.1.15,2013-01-01 16:32:00,
2013-01-01 11:38:00,40.3,31.3,29.99,West,268,1.0,2.0,70,0.00,,,0.00,Wunderground v.1.15,2013-01-01 16:38:00,
2013-01-01 11:44:00,40.4,31.0,30.00,West,268,1.0,1.0,69,0.00,,,0.00,Wunderground v.1.15,2013-01-01 16:44:00,
2013-01-01 11:49:00,40.5,31.1,29.99,West,268,0.0,3.0,69,0.00,,,0.00,Wunderground v.1.15,2013-01-01 16:49:00,
2013-01-01 11:54:00,40.4,31.0,29.98,West,268,1.0,2.0,69,0.00,,,0.00,Wunderground v.1.15,2013-01-01 16:54:00,
2013-01-01 12:00:00,40.4,31.0,29.98,West,268,1.0,1.0,69,0.00,,,0.00,Wunderground v.1.15,2013-01-01 17:00:00,
2013-01-01 12:05:00,40.5,31.5,29.99,West,268,0.0,1.0,70,0.00,,,0.00,Wunderground v.1.15,2013-01-01 17:05:00,
2013-01-01 12:11:00,40.7,31.3,29.99,West,268,0.0,0.0,69,0.00,,,0.00,Wunderground v.1.15,2013-01-01 17:11:00,
2013-01-01 12:16:00,41.1,33.1,29.98,West,268,0.0,0.0,73,0.00,,,0.00,Wunderground v.1.15,2013-01-01 17:16:00,
2013-01-01 12:22:00,41.4,31.6,29.97,West,268,0.0,0.0,68,0.00,,,0.00,Wunderground v.1.15,2013-01-01 17:22:00,
2013-01-01 12:27:00,41.4,31.3,29.97,West,268,0.0,0.0,67,0.00,,,0.00,Wunderground v.1.15,2013-01-01 17:27:00,
2013-01-01 12:33:00,41.2,31.1,29.95,West,268,1.0,2.0,67,0.00,,,0.00,Wunderground v.1.15,2013-01-01 17:33:00,
2013-01-01 12:39:00,41.0,31.2,29.96,West,268,1.0,2.0,68,0.00,,,0.00,Wunderground v.1.15,2013-01-01 17:39:00,
2013-01-01 12:44:00,41.0,31.2,29.97,West,268,0.0,2.0,68,0.00,,,0.00,Wunderground v.1.15,2013-01-01 17:44:00,
2013-01-01 12:50:00,41.0,31.2,29.96,West,268,1.0,1.0,68,0.00,,,0.00,Wunderground v.1.15,2013-01-01 17:50:00,
2013-01-01 12:55:00,41.1,31.3,29.96,West,268,0.0,1.0,68,0.00,,,0.00,Wunderground v.1.15,2013-01-01 17:55:00,
2013-01-01 13:00:00,41.1,31.3,29.96,West,268,0.0,0.0,68,0.00,,,0.00,Wunderground v.1.15,2013-01-01 18:00:00,
2013-01-01 13:06:00,41.1,31.3,29.95,West,268,0.0,1.0,68,0.00,,,0.00,Wunderground v.1.15,2013-01-01 18:06:00,
2013-01-01 13:11:00,41.1,31.3,29.94,West,268,0.0,0.0,68,0.00,,,0.00,Wunderground v.1.15,2013-01-01 18:11:00,
2013-01-01 13:17:00,41.3,31.2,29.95,West,268,0.0,0.0,67,0.00,,,0.00,Wunderground v.1.15,2013-01-01 18:17:00,
2013-01-01 13:22:00,41.5,31.4,29.95,West,268,0.0,0.0,67,0.00,,,0.00,Wunderground v.1.15,2013-01-01 18:22:00,
2013-01-01 13:28:00,41.9,32.1,29.94,West,268,0.0,0.0,68,0.00,,,0.00,Wunderground v.1.15,2013-01-01 18:28:00,
2013-01-01 13:34:00,42.2,32.0,29.95,West,268,0.0,0.0,67,0.00,,,0.00,Wunderground v.1.15,2013-01-01 18:34:00,
2013-01-01 13:39:00,42.3,31.7,29.94,West,268,0.0,0.0,66,0.00,,,0.00,Wunderground v.1.15,2013-01-01 18:39:00,
2013-01-01 13:45:00,42.7,31.7,29.94,West,268,0.0,0.0,65,0.00,,,0.00,Wunderground v.1.15,2013-01-01 18:45:00,
2013-01-01 13:50:00,43.0,32.4,29.95,West,268,0.0,0.0,66,0.00,,,0.00,Wunderground v.1.15,2013-01-01 18:50:00,
2013-01-01 13:56:00,43.2,32.2,29.95,West,271,0.0,4.0,65,0.00,,,0.00,Wunderground v.1.15,2013-01-01 18:56:00,
2013-01-01 14:01:00,42.2,31.3,29.95,West,271,2.0,3.0,65,0.00,,,0.01,Wunderground v.1.15,2013-01-01 19:01:00,
2013-01-01 14:07:00,41.2,31.1,29.95,West,273,4.0,5.0,67,0.00,,,0.01,Wunderground v.1.15,2013-01-01 19:07:00,
2013-01-01 14:12:00,40.6,31.2,29.94,WNW,288,4.0,5.0,69,0.00,,,0.01,Wunderground v.1.15,2013-01-01 19:12:00,
2013-01-01 14:17:00,40.1,31.1,29.95,WNW,288,4.0,5.0,70,0.00,,,0.01,Wunderground v.1.15,2013-01-01 19:17:00,
2013-01-01 14:23:00,39.8,30.8,29.94,WNW,290,4.0,6.0,70,0.00,,,0.01,Wunderground v.1.15,2013-01-01 19:23:00,
2013-01-01 14:29:00,39.9,30.9,29.95,WNW,302,5.0,6.0,70,0.00,,,0.01,Wunderground v.1.15,2013-01-01 19:29:00,
2013-01-01 14:34:00,39.9,30.9,29.95,NW,305,5.0,6.0,70,0.00,,,0.01,Wunderground v.1.15,2013-01-01 19:34:00,
2013-01-01 14:39:00,40.1,30.7,29.95,NW,304,5.0,7.0,69,0.00,,,0.01,Wunderground v.1.15,2013-01-01 19:39:00,
2013-01-01 14:45:00,40.3,30.9,29.95,WNW,303,4.0,5.0,69,0.00,,,0.01,Wunderground v.1.15,2013-01-01 19:45:00,
2013-01-01 14:50:00,40.1,31.1,29.95,WNW,303,3.0,3.0,70,0.00,,,0.01,Wunderground v.1.15,2013-01-01 19:50:00,
2013-01-01 14:56:00,39.8,30.8,29.95,NW,304,2.0,3.0,70,0.00,,,0.01,Wunderground v.1.15,2013-01-01 19:56:00,
2013-01-01 15:01:00,39.7,31.1,29.95,NW,304,2.0,3.0,71,0.00,,,0.01,Wunderground v.1.15,2013-01-01 20:01:00,
2013-01-01 15:07:00,39.7,31.1,29.95,NW,304,1.0,3.0,71,0.00,,,0.01,Wunderground v.1.15,2013-01-01 20:07:00,
2013-01-01 15:12:00,39.8,30.8,29.95,NW,304,2.0,5.0,70,0.00,,,0.01,Wunderground v.1.15,2013-01-01 20:12:00,
2013-01-01 15:18:00,39.9,30.9,29.96,NW,314,2.0,5.0,70,0.12,,,0.04,Wunderground v.1.15,2013-01-01 20:18:00,
2013-01-01 15:23:00,39.9,30.9,29.95,NW,314,1.0,3.0,70,0.06,,,0.04,Wunderground v.1.15,2013-01-01 20:23:00,
2013-01-01 15:29:00,39.8,30.8,29.95,NW,314,2.0,6.0,70,0.04,,,0.04,Wunderground v.1.15,2013-01-01 20:29:00,
2013-01-01 15:34:00,39.5,30.9,29.95,NW,314,3.0,5.0,71,0.00,,,0.04,Wunderground v.1.15,2013-01-01 20:34:00,
2013-01-01 15:40:00,39.4,30.8,29.95,NW,314,3.0,5.0,71,0.00,,,0.04,Wunderground v.1.15,2013-01-01 20:40:00,
2013-01-01 15:45:00,39.3,30.7,29.96,NW,314,4.0,5.0,71,0.00,,,0.04,Wunderground v.1.15,2013-01-01 20:45:00,
2013-01-01 15:50:00,39.3,30.7,29.95,NW,322,4.0,6.0,71,0.00,,,0.04,Wunderground v.1.15,2013-01-01 20:50:00,
2013-01-01 15:56:00,39.2,30.6,29.96,NW,319,5.0,8.0,71,0.00,,,0.04,Wunderground v.1.15,2013-01-01 20:56:00,
2013-01-01 16:01:00,39.3,30.7,29.96,NW,313,5.0,7.0,71,0.00,,,0.04,Wunderground v.1.15,2013-01-01 21:01:00,
2013-01-01 16:07:00,39.3,30.7,29.97,WNW,302,6.0,9.0,71,0.00,,,0.04,Wunderground v.1.15,2013-01-01 21:07:00,
2013-01-01 16:12:00,39.3,30.7,29.97,NW,310,6.0,6.0,71,0.00,,,0.04,Wunderground v.1.15,2013-01-01 21:12:00,
2013-01-01 16:18:00,39.2,30.6,29.97,NW,307,5.0,6.0,71,0.00,,,0.04,Wunderground v.1.15,2013-01-01 21:18:00,
2013-01-01 16:24:00,39.1,30.5,29.97,WNW,300,5.0,7.0,71,0.00,,,0.04,Wunderground v.1.15,2013-01-01 21:24:00,
2013-01-01 16:29:00,39.1,30.8,29.97,WNW,293,5.0,7.0,72,0.00,,,0.04,Wunderground v.1.15,2013-01-01 21:29:00,
2013-01-01 16:34:00,39.0,30.7,29.97,WNW,294,3.0,5.0,72,0.00,,,0.04,Wunderground v.1.15,2013-01-01 21:34:00,
2013-01-01 16:40:00,38.7,30.4,29.98,WNW,294,2.0,2.0,72,0.00,,,0.04,Wunderground v.1.15,2013-01-01 21:40:00,
2013-01-01 16:45:00,38.6,30.4,29.98,WNW,294,2.0,4.0,72,0.00,,,0.04,Wunderground v.1.15,2013-01-01 21:45:00,
2013-01-01 16:51:00,38.6,30.7,29.98,WNW,294,2.0,3.0,73,0.00,,,0.04,Wunderground v.1.15,2013-01-01 21:51:00,
2013-01-01 16:56:00,38.4,30.5,29.98,WNW,294,2.0,3.0,73,0.00,,,0.04,Wunderground v.1.15,2013-01-01 21:56:00,
2013-01-01 17:01:00,38.2,30.3,29.98,WNW,295,2.0,3.0,73,0.00,,,0.04,Wunderground v.1.15,2013-01-01 22:01:00,
2013-01-01 17:07:00,38.2,30.3,29.98,WNW,295,2.0,3.0,73,0.00,,,0.04,Wunderground v.1.15,2013-01-01 22:07:00,
2013-01-01 17:12:00,38.2,30.3,29.98,WNW,297,2.0,6.0,73,0.00,,,0.04,Wunderground v.1.15,2013-01-01 22:12:00,
2013-01-01 17:17:00,38.2,30.6,29.98,WNW,297,2.0,6.0,74,0.00,,,0.04,Wunderground v.1.15,2013-01-01 22:17:00,
2013-01-01 17:23:00,37.8,30.3,29.99,WNW,296,1.0,2.0,74,0.00,,,0.04,Wunderground v.1.15,2013-01-01 22:23:00,
2013-01-01 17:29:00,37.7,30.5,29.99,WNW,297,1.0,2.0,75,0.00,,,0.04,Wunderground v.1.15,2013-01-01 22:29:00,
2013-01-01 17:34:00,37.6,30.4,29.99,WNW,297,1.0,3.0,75,0.00,,,0.04,Wunderground v.1.15,2013-01-01 22:34:00,
2013-01-01 17:39:00,37.6,30.4,30.00,WNW,297,2.0,5.0,75,0.00,,,0.04,Wunderground v.1.15,2013-01-01 22:39:00,
2013-01-01 17:45:00,37.7,30.5,30.00,NW,308,3.0,9.0,75,0.00,,,0.04,Wunderground v.1.15,2013-01-01 22:45:00,
2013-01-01 17:50:00,37.8,30.6,30.01,NW,309,5.0,5.0,75,0.00,,,0.04,Wunderground v.1.15,2013-01-01 22:50:00,
2013-01-01 17:56:00,37.5,30.6,30.01,NW,309,4.0,5.0,76,0.00,,,0.04,Wunderground v.1.15,2013-01-01 22:56:00,
2013-01-01 18:01:00,37.3,30.4,30.00,NW,309,2.0,3.0,76,0.00,,,0.04,Wunderground v.1.15,2013-01-01 23:01:00,
2013-01-01 18:07:00,37.0,30.5,30.01,NW,318,2.0,5.0,77,0.00,,,0.04,Wunderground v.1.15,2013-01-01 23:07:00,
2013-01-01 18:12:00,36.9,30.4,30.00,NW,318,2.0,5.0,77,0.00,,,0.04,Wunderground v.1.15,2013-01-01 23:12:00,
2013-01-01 18:17:00,36.9,30.4,30.00,NW,319,2.0,5.0,77,0.00,,,0.04,Wunderground v.1.15,2013-01-01 23:17:00,
2013-01-01 18:23:00,36.9,30.7,30.01,NW,319,1.0,2.0,78,0.00,,,0.04,Wunderground v.1.15,2013-01-01 23:23:00,
2013-01-01 18:28:00,36.8,30.6,30.01,NW,319,1.0,4.0,78,0.00,,,0.04,Wunderground v.1.15,2013-01-01 23:28:00,
2013-01-01 18:34:00,36.9,30.7,30.01,NW,322,2.0,7.0,78,0.00,,,0.04,Wunderground v.1.15,2013-01-01 23:34:00,
2013-01-01 18:39:00,37.0,30.8,30.01,NW,322,2.0,7.0,78,0.00,,,0.04,Wunderground v.1.15,2013-01-01 23:39:00,
2013-01-01 18:44:00,36.9,30.7,30.01,NW,322,1.0,4.0,78,0.00,,,0.04,Wunderground v.1.15,2013-01-01 23:44:00,
2013-01-01 18:50:00,36.8,30.6,30.01,NW,320,2.0,3.0,78,0.00,,,0.04,Wunderground v.1.15,2013-01-01 23:50:00,
2013-01-01 18:55:00,36.8,30.6,30.01,NNW,341,4.0,6.0,78,0.00,,,0.04,Wunderground v.1.15,2013-01-01 23:55:00,
2013-01-01 19:01:00,36.7,30.5,30.02,NNW,340,3.0,5.0,78,0.00,,,0.04,Wunderground v.1.15,2013-01-02 00:01:00,
2013-01-01 19:06:00,36.6,30.7,30.02,NNW,340,2.0,5.0,79,0.00,,,0.04,Wunderground v.1.15,2013-01-02 00:06:00,
2013-01-01 19:12:00,36.6,30.4,30.02,NNW,331,4.0,7.0,78,0.00,,,0.04,Wunderground v.1.15,2013-01-02 00:12:00,
2013-01-01 19:17:00,36.5,30.3,30.02,NW,322,4.0,7.0,78,0.00,,,0.04,Wunderground v.1.15,2013-01-02 00:17:00,
2013-01-01 19:23:00,36.5,30.6,30.02,NNW,334,3.0,4.0,79,0.00,,,0.04,Wunderground v.1.15,2013-01-02 00:23:00,
2013-01-01 19:29:00,36.3,30.4,30.01,NNW,334,3.0,4.0,79,0.00,,,0.04,Wunderground v.1.15,2013-01-02 00:29:00,
2013-01-01 19:34:00,36.2,30.3,30.01,NNW,334,2.0,3.0,79,0.00,,,0.04,Wunderground v.1.15,2013-01-02 00:34:00,
2013-01-01 19:39:00,36.2,30.3,30.02,NNW,334,2.0,3.0,79,0.00,,,0.04,Wunderground v.1.15,2013-01-02 00:39:00,
2013-01-01 19:45:00,36.1,30.2,30.01,NNW,334,1.0,1.0,79,0.00,,,0.04,Wunderground v.1.15,2013-01-02 00:45:00,
2013-01-01 19:50:00,36.1,30.2,30.01,NNW,334,1.0,1.0,79,0.00,,,0.04,Wunderground v.1.15,2013-01-02 00:50:00,
2013-01-01 19:55:00,36.0,30.1,30.02,NNW,334,1.0,4.0,79,0.00,,,0.04,Wunderground v.1.15,2013-01-02 00:55:00,
2013-01-01 20:01:00,36.0,30.1,30.02,NNW,334,0.0,0.0,79,0.00,,,0.04,Wunderground v.1.15,2013-01-02 01:01:00,
2013-01-01 20:06:00,35.9,30.0,30.02,NNW,334,0.0,4.0,79,0.00,,,0.04,Wunderground v.1.15,2013-01-02 01:06:00,
2013-01-01 20:11:00,35.9,30.0,30.02,NNW,336,1.0,4.0,79,0.00,,,0.04,Wunderground v.1.15,2013-01-02 01:11:00,
2013-01-01 20:17:00,35.9,30.0,30.02,NNW,336,1.0,4.0,79,0.00,,,0.04,Wunderground v.1.15,2013-01-02 01:17:00,
2013-01-01 20:22:00,35.9,30.0,30.02,NNW,336,0.0,1.0,79,0.00,,,0.04,Wunderground v.1.15,2013-01-02 01:22:00,
2013-01-01 20:28:00,35.9,30.3,30.02,NNW,336,0.0,2.0,80,0.00,,,0.04,Wunderground v.1.15,2013-01-02 01:28:00,
2013-01-01 20:34:00,35.9,30.3,30.02,NNW,336,0.0,0.0,80,0.00,,,0.04,Wunderground v.1.15,2013-01-02 01:34:00,
2013-01-01 20:39:00,36.0,30.1,30.03,NNW,337,1.0,1.0,79,0.00,,,0.04,Wunderground v.1.15,2013-01-02 01:39:00,
2013-01-01 20:44:00,35.9,30.3,30.04,NNW,337,1.0,1.0,80,0.00,,,0.04,Wunderground v.1.15,2013-01-02 01:44:00,
2013-01-01 20:50:00,35.7,30.1,30.04,NNW,337,0.0,0.0,80,0.00,,,0.04,Wunderground v.1.15,2013-01-02 01:50:00,
2013-01-01 20:55:00,35.6,30.0,30.03,NNW,337,0.0,0.0,80,0.00,,,0.04,Wunderground v.1.15,2013-01-02 01:55:00,
2013-01-01 21:01:00,35.6,30.0,30.03,NNW,337,0.0,0.0,80,0.00,,,0.04,Wunderground v.1.15,2013-01-02 02:01:00,
2013-01-01 21:06:00,35.6,30.0,30.03,NNW,337,0.0,0.0,80,0.00,,,0.04,Wunderground v.1.15,2013-01-02 02:06:00,
2013-01-01 21:11:00,35.6,30.0,30.03,NNW,337,0.0,2.0,80,0.00,,,0.04,Wunderground v.1.15,2013-01-02 02:11:00,
2013-01-01 21:17:00,35.6,30.0,30.03,NNW,337,0.0,2.0,80,0.00,,,0.04,Wunderground v.1.15,2013-01-02 02:17:00,
2013-01-01 21:22:00,35.6,30.0,30.03,NNW,337,0.0,1.0,80,0.00,,,0.04,Wunderground v.1.15,2013-01-02 02:22:00,
2013-01-01 21:28:00,35.5,29.9,30.04,NNW,337,0.0,3.0,80,0.00,,,0.04,Wunderground v.1.15,2013-01-02 02:28:00,
2013-01-01 21:33:00,35.4,30.1,30.04,NNW,337,1.0,2.0,81,0.00,,,0.04,Wunderground v.1.15,2013-01-02 02:33:00,
2013-01-01 21:39:00,35.3,30.1,30.04,NNW,337,1.0,4.0,81,0.00,,,0.04,Wunderground v.1.15,2013-01-02 02:39:00,
2013-01-01 21:44:00,35.3,30.1,30.04,NNW,337,2.0,3.0,81,0.00,,,0.04,Wunderground v.1.15,2013-01-02 02:44:00,
2013-01-01 21:49:00,35.2,30.0,30.04,NNW,337,2.0,4.0,81,0.00,,,0.04,Wunderground v.1.15,2013-01-02 02:49:00,
2013-01-01 21:55:00,35.2,30.0,30.04,NNW,337,3.0,3.0,81,0.00,,,0.04,Wunderground v.1.15,2013-01-02 02:55:00,
2013-01-01 22:00:00,35.1,30.2,30.03,NNW,337,3.0,4.0,82,0.00,,,0.04,Wunderground v.1.15,2013-01-02 03:00:00,
2013-01-01 22:06:00,35.0,30.1,30.03,NNW,336,3.0,6.0,82,0.00,,,0.04,Wunderground v.1.15,2013-01-02 03:06:00,